Time;durP1;ratioP1;P1;durP2;ratioP2;P2;SDS_P1;SDS_P2;PMS_P1;PMS_P2;Temp;Humidity;BMP_temperature;BMP_pressure;BME280_temperature;BME280_humidity;BME280_pressure;Samples;Min_cycle;Max_cycle;Signal;HPM_P1;HPM_P2
2023/05/12 00:04:00;;;;;;;12.23;10.63;;;;;;;12.06;60.44;99594.22;10343499;28;20238;-39
2023/05/12 00:09:02;;;;;;;15.40;11.47;;;;;;;12.67;59.56;99607.69;10344168;28;20595;-39
2023/05/12 00:14:05;;;;;;;16.13;12.17;;;;;;;13.38;58.09;99633.25;10350904;28;20766;-39
2023/05/12 00:19:07;;;;;;;14.67;12.40;;;;;;;12.54;59.10;99603.09;10350730;28;20229;-39
2023/05/12 00:24:09;;;;;;;16.13;12.97;;;;;;;12.21;61.08;99615.53;10347579;28;20243;-39
2023/05/12 00:29:11;;;;;;;16.40;13.10;;;;;;;12.62;59.68;99614.69;10353886;28;20225;-39
2023/05/12 00:34:12;;;;;;;17.73;13.60;;;;;;;12.28;60.11;99601.13;10348842;28;20226;-39
2023/05/12 00:39:14;;;;;;;17.47;13.43;;;;;;;12.60;59.43;99624.81;10349116;28;20336;-39
2023/05/12 00:44:17;;;;;;;16.20;13.73;;;;;;;12.11;60.37;99635.50;10351793;28;20236;-39
2023/05/12 00:49:19;;;;;;;15.40;13.07;;;;;;;12.52;59.58;99605.16;10351091;28;20233;-39
2023/05/12 00:54:22;;;;;;;14.93;12.50;;;;;;;12.16;59.59;99622.34;10349850;28;20236;-39
2023/05/12 00:59:23;;;;;;;17.03;12.93;;;;;;;13.44;57.37;99647.69;10351142;28;20226;-38
2023/05/12 01:04:25;;;;;;;14.87;12.40;;;;;;;13.16;57.13;99613.78;10353111;28;20229;-39
2023/05/12 01:09:27;;;;;;;18.47;14.13;;;;;;;13.40;58.04;99649.97;10351873;28;20237;-39
2023/05/12 01:14:28;;;;;;;15.37;12.50;;;;;;;11.69;60.51;99577.50;10345580;28;20230;-39
2023/05/12 01:19:42;;;;;;;16.10;12.37;;;;;;;12.67;59.21;99626.50;10351713;28;20242;-39
2023/05/12 01:24:49;;;;;;;15.47;12.67;;;;;;;13.81;56.74;99667.72;10348789;28;20235;-39
2023/05/12 01:29:51;;;;;;;15.93;12.60;;;;;;;12.84;59.04;99634.16;10346218;28;21508;-39
2023/05/12 01:34:53;;;;;;;16.07;12.50;;;;;;;13.44;57.16;99661.13;10348646;28;20807;-38
2023/05/12 01:39:55;;;;;;;15.47;12.13;;;;;;;13.45;56.79;99665.50;10348689;28;20236;-39
2023/05/12 01:44:57;;;;;;;15.07;11.63;;;;;;;13.32;57.03;99643.97;10345086;28;20233;-38
2023/05/12 01:49:58;;;;;;;14.27;12.03;;;;;;;13.59;57.34;99656.38;10348134;28;20271;-39
2023/05/12 01:55:00;;;;;;;14.07;12.27;;;;;;;12.82;56.85;99604.00;10348667;28;20275;-39
2023/05/12 02:00:02;;;;;;;15.67;12.80;;;;;;;12.70;58.33;99642.19;10345477;28;20596;-39
2023/05/12 02:05:04;;;;;;;19.00;13.77;;;;;;;12.59;58.66;99639.25;10331697;28;20707;-39
2023/05/12 02:10:07;;;;;;;16.87;13.40;;;;;;;11.91;59.63;99607.75;10348517;28;20257;-39
2023/05/12 02:15:09;;;;;;;18.83;13.73;;;;;;;12.29;59.12;99623.41;10348380;28;20265;-39
2023/05/12 02:20:11;;;;;;;17.00;13.23;;;;;;;14.85;54.08;99721.75;10347127;28;20728;-38
2023/05/12 02:25:13;;;;;;;15.97;12.63;;;;;;;13.07;57.42;99623.03;10349502;28;20232;-39
2023/05/12 02:30:14;;;;;;;15.43;12.40;;;;;;;13.32;56.69;99626.00;10344993;28;20225;-38
2023/05/12 02:35:16;;;;;;;14.87;12.60;;;;;;;12.80;58.30;99646.34;10346093;28;20247;-39
2023/05/12 02:40:18;;;;;;;15.50;12.67;;;;;;;12.17;58.94;99591.78;10347256;28;20607;-39
2023/05/12 02:45:20;;;;;;;17.93;13.00;;;;;;;12.21;58.48;99584.16;10347584;28;20251;-39
2023/05/12 02:50:22;;;;;;;18.60;13.90;;;;;;;11.42;60.68;99559.38;10352681;28;20228;-39
2023/05/12 02:55:23;;;;;;;16.77;12.90;;;;;;;11.25;61.22;99539.25;10336245;28;20780;-39
2023/05/12 03:00:25;;;;;;;22.53;15.70;;;;;;;11.62;61.08;99589.03;10326365;28;20964;-38
2023/05/12 03:05:27;;;;;;;18.53;14.77;;;;;;;11.41;61.27;99579.16;10346506;28;20237;-39
2023/05/12 03:10:29;;;;;;;20.00;14.63;;;;;;;12.22;60.12;99617.22;10345375;28;20228;-39
2023/05/12 03:15:31;;;;;;;15.97;13.37;;;;;;;12.39;59.34;99599.72;10346885;28;20587;-39
2023/05/12 03:20:32;;;;;;;18.43;14.20;;;;;;;11.56;60.93;99573.69;10349125;28;20646;-38
2023/05/12 03:25:34;;;;;;;17.37;13.77;;;;;;;12.14;59.60;99613.66;10344716;28;20576;-39
2023/05/12 03:30:36;;;;;;;17.33;12.60;;;;;;;13.22;57.32;99663.97;10347338;28;20601;-38
2023/05/12 03:35:38;;;;;;;16.50;12.50;;;;;;;13.09;57.84;99662.13;10347245;28;20228;-39
2023/05/12 03:40:40;;;;;;;14.07;10.93;;;;;;;12.83;57.81;99648.63;10349261;28;20241;-39
2023/05/12 03:45:41;;;;;;;14.27;10.67;;;;;;;12.72;57.72;99631.22;10339159;28;20974;-37
2023/05/12 03:50:43;;;;;;;16.07;11.40;;;;;;;12.47;58.03;99625.56;10316023;28;20278;-37
2023/05/12 03:55:45;;;;;;;12.43;10.00;;;;;;;12.81;57.45;99631.91;10316583;28;20242;-37
2023/05/12 04:00:48;;;;;;;11.67;9.87;;;;;;;12.80;57.05;99631.03;10312608;28;20233;-37
2023/05/12 04:05:56;;;;;;;13.77;10.93;;;;;;;12.77;58.11;99662.84;10314185;28;20244;-37
2023/05/12 04:11:00;;;;;;;11.10;9.70;;;;;;;13.29;57.32;99678.31;10314257;28;20229;-37
2023/05/12 04:16:02;;;;;;;11.37;9.23;;;;;;;13.16;57.37;99672.03;10313716;28;20958;-37
2023/05/12 04:21:04;;;;;;;10.70;8.63;;;;;;;12.05;57.99;99601.44;10315436;28;20217;-37
2023/05/12 04:26:06;;;;;;;10.83;9.03;;;;;;;14.25;55.09;99729.16;10313427;28;20325;-37
2023/05/12 04:31:07;;;;;;;12.20;9.77;;;;;;;12.77;57.31;99650.25;10311067;28;20297;-37
2023/05/12 04:36:09;;;;;;;12.20;9.27;;;;;;;13.70;55.09;99662.16;10308628;28;20619;-37
2023/05/12 04:41:11;;;;;;;10.73;9.27;;;;;;;12.33;57.29;99605.88;10315271;28;20210;-37
2023/05/12 04:46:13;;;;;;;12.03;8.90;;;;;;;13.32;56.77;99668.16;10312057;28;20885;-36
2023/05/12 04:51:14;;;;;;;11.50;9.20;;;;;;;12.49;57.45;99610.94;10285646;28;20235;-37
2023/05/12 04:56:16;;;;;;;11.47;9.20;;;;;;;12.90;57.89;99671.75;10285459;28;20592;-37
2023/05/12 05:01:18;;;;;;;12.43;10.17;;;;;;;12.98;57.13;99648.47;10283343;28;20327;-36
2023/05/12 05:06:20;;;;;;;12.57;10.07;;;;;;;14.07;55.21;99702.91;10284393;28;20251;-37
2023/05/12 05:11:22;;;;;;;12.57;10.13;;;;;;;13.92;54.43;99649.31;10283628;28;20692;-37
2023/05/12 05:16:24;;;;;;;12.77;9.97;;;;;;;12.57;57.55;99617.16;10285586;28;20680;-37
2023/05/12 05:21:25;;;;;;;11.60;10.00;;;;;;;14.44;54.41;99705.94;10288574;28;20251;-36
2023/05/12 05:26:27;;;;;;;12.07;9.73;;;;;;;15.51;51.96;99731.31;10286279;28;20253;-37
2023/05/12 05:31:29;;;;;;;14.17;10.93;;;;;;;14.35;54.97;99679.25;10278958;28;20211;-37
2023/05/12 05:36:31;;;;;;;15.73;11.33;;;;;;;14.62;54.20;99654.91;10294046;28;20278;-36
2023/05/12 05:41:32;;;;;;;15.57;13.07;;;;;;;14.56;54.78;99671.91;10301477;28;20233;-37
2023/05/12 05:46:34;;;;;;;16.30;13.00;;;;;;;13.90;55.83;99648.69;10323178;28;20730;-37
2023/05/12 05:51:36;;;;;;;16.50;12.67;;;;;;;13.76;55.20;99602.19;10344157;28;20245;-37
2023/05/12 05:56:38;;;;;;;16.03;12.80;;;;;;;13.71;56.91;99653.06;10342743;28;20221;-37
2023/05/12 06:01:39;;;;;;;16.87;13.17;;;;;;;15.75;52.86;99726.19;10348279;28;20237;-37
2023/05/12 06:06:41;;;;;;;18.07;12.90;;;;;;;13.34;56.53;99606.97;10347558;28;20233;-37
2023/05/12 06:11:43;;;;;;;16.53;13.07;;;;;;;13.25;56.08;99592.91;10339584;28;20256;-37
2023/05/12 06:16:45;;;;;;;15.90;13.07;;;;;;;15.75;52.87;99720.78;10345150;28;20723;-37
2023/05/12 06:21:46;;;;;;;17.37;12.67;;;;;;;15.98;51.99;99714.78;10340493;28;20229;-37
2023/05/12 06:26:48;;;;;;;16.63;13.03;;;;;;;15.49;53.10;99684.88;10344808;28;20233;-37
2023/05/12 06:31:50;;;;;;;17.60;12.77;;;;;;;16.26;51.58;99713.47;10346321;28;20233;-37
2023/05/12 06:36:52;;;;;;;16.67;12.70;;;;;;;14.57;54.51;99647.47;10347164;28;20233;-37
2023/05/12 06:41:55;;;;;;;17.13;13.60;;;;;;;15.69;53.48;99670.44;10349133;28;20484;-37
2023/05/12 06:46:58;;;;;;;15.17;12.30;;;;;;;14.01;56.33;99637.28;10342481;28;20256;-36
2023/05/12 06:52:00;;;;;;;13.30;11.23;;;;;;;16.20;52.01;99680.09;10326974;28;20234;-37
2023/05/12 06:57:01;;;;;;;15.37;12.20;;;;;;;15.52;53.96;99662.88;10343854;28;20234;-36
2023/05/12 07:02:03;;;;;;;12.77;10.77;;;;;;;14.61;54.22;99593.19;10343076;28;20351;-37
2023/05/12 07:07:05;;;;;;;10.60;9.40;;;;;;;13.80;55.18;99589.94;10347598;28;20239;-37
2023/05/12 07:12:06;;;;;;;8.80;7.47;;;;;;;15.22;53.28;99651.06;10342962;28;20225;-37
2023/05/12 07:17:08;;;;;;;9.17;7.60;;;;;;;16.46;51.53;99710.56;10346230;28;20591;-36
2023/05/12 07:22:10;;;;;;;7.00;6.30;;;;;;;15.14;53.16;99650.28;10351148;28;20235;-36
2023/05/12 07:27:12;;;;;;;7.27;6.57;;;;;;;15.79;51.49;99651.88;10352678;28;20735;-37
2023/05/12 07:32:14;;;;;;;6.20;5.43;;;;;;;15.69;51.47;99638.06;10352009;28;20234;-36
2023/05/12 07:37:16;;;;;;;5.93;5.33;;;;;;;15.66;52.05;99658.19;10346972;28;20808;-37
2023/05/12 07:42:18;;;;;;;8.17;5.57;;;;;;;15.45;51.65;99659.41;10353124;28;20236;-37
2023/05/12 07:47:20;;;;;;;5.17;4.67;;;;;;;16.72;49.53;99681.56;10328694;28;20258;-37
2023/05/12 07:52:23;;;;;;;5.27;4.80;;;;;;;15.63;50.72;99620.88;10306125;28;20241;-37
2023/05/12 07:57:24;;;;;;;5.27;4.57;;;;;;;16.43;49.15;99647.03;10308342;28;22643;-37
2023/05/12 08:02:26;;;;;;;5.33;4.67;;;;;;;15.49;50.71;99613.94;10304265;28;20233;-37
2023/05/12 08:07:28;;;;;;;5.13;4.50;;;;;;;17.05;49.40;99664.94;10309860;28;20231;-37
2023/05/12 08:12:30;;;;;;;3.67;3.20;;;;;;;16.31;49.14;99608.34;10302680;28;20320;-37
2023/05/12 08:17:31;;;;;;;3.37;3.07;;;;;;;15.23;50.14;99566.47;10306968;28;20237;-37
2023/05/12 08:22:33;;;;;;;3.30;3.00;;;;;;;15.61;49.53;99579.00;10303909;28;20661;-37
2023/05/12 08:27:35;;;;;;;3.93;2.77;;;;;;;17.07;47.73;99643.09;10305768;28;20240;-37
2023/05/12 08:32:36;;;;;;;2.47;2.27;;;;;;;17.22;47.52;99623.72;10304847;28;20649;-37
2023/05/12 08:37:38;;;;;;;3.33;2.30;;;;;;;16.38;49.42;99610.94;10305120;28;20231;-37
2023/05/12 08:43:00;;;;;;;4.40;2.80;;;;;;;16.14;49.57;99570.31;10289893;28;20635;-37
2023/05/12 08:48:04;;;;;;;3.03;2.70;;;;;;;16.79;48.38;99568.84;10333418;28;20247;-36
2023/05/12 08:53:10;;;;;;;3.27;2.90;;;;;;;17.34;47.52;99611.03;10351124;28;20265;-37
2023/05/12 08:58:13;;;;;;;4.00;2.93;;;;;;;16.92;48.89;99602.94;10345373;28;20240;-36
2023/05/12 09:03:17;;;;;;;2.93;2.60;;;;;;;15.52;50.36;99600.84;10343875;28;20229;-36
2023/05/12 09:08:18;;;;;;;2.77;2.57;;;;;;;16.69;48.94;99574.00;10343920;28;20237;-37
2023/05/12 09:13:59;;;;;;;3.63;2.67;;;;;;;17.07;48.46;99581.72;10343600;28;20234;-37
2023/05/12 09:19:01;;;;;;;2.90;2.70;;;;;;;17.65;48.22;99614.50;10345829;28;20232;-36
2023/05/12 09:24:07;;;;;;;3.10;2.80;;;;;;;17.12;48.98;99586.44;10347781;28;20301;-37
2023/05/12 09:29:10;;;;;;;2.70;2.50;;;;;;;16.41;49.15;99594.31;10342206;28;20245;-36
2023/05/12 09:34:31;;;;;;;3.00;2.80;;;;;;;15.79;48.96;99533.16;10341131;28;21846;-36
2023/05/12 09:39:33;;;;;;;4.00;2.60;;;;;;;16.85;48.75;99567.91;10342315;28;20233;-36
2023/05/12 09:44:39;;;;;;;3.67;3.37;;;;;;;16.00;48.94;99533.75;10358474;22;20228;-42
2023/05/12 09:49:45;;;;;;;2.53;2.33;;;;;;;15.51;50.07;99572.22;10358541;28;20233;-40
2023/05/12 09:54:47;;;;;;;2.43;2.23;;;;;;;16.16;49.17;99586.28;10363397;28;20354;-42
2023/05/12 09:59:50;;;;;;;2.40;2.20;;;;;;;16.13;49.09;99543.53;10395286;28;20237;-41
2023/05/12 10:04:57;;;;;;;1.90;1.80;;;;;;;17.18;46.94;99547.66;10389845;28;20254;-41
2023/05/12 10:10:01;;;;;;;1.93;1.83;;;;;;;17.73;47.00;99550.03;10392798;28;20224;-41
2023/05/12 10:15:05;;;;;;;1.90;1.80;;;;;;;18.73;45.15;99549.00;10398168;28;20236;-39
2023/05/12 10:20:09;;;;;;;2.00;1.90;;;;;;;17.35;46.82;99513.44;10394603;28;20247;-42
2023/05/12 10:25:12;;;;;;;1.83;1.73;;;;;;;16.46;47.88;99505.31;10395030;28;20240;-41
2023/05/12 10:30:15;;;;;;;1.87;1.77;;;;;;;18.71;45.78;99527.56;10388810;28;20225;-41
2023/05/12 10:35:17;;;;;;;1.60;1.50;;;;;;;17.48;46.87;99523.22;10395869;28;20286;-40
2023/05/12 10:40:24;;;;;;;1.87;1.53;;;;;;;18.00;45.41;99473.72;10398470;28;20780;-43
2023/05/12 10:45:26;;;;;;;2.13;1.90;;;;;;;17.80;46.83;99457.88;10393554;28;20332;-41
2023/05/12 10:50:29;;;;;;;2.20;2.10;;;;;;;17.23;47.31;99520.75;10398613;28;20607;-40
2023/05/12 10:55:34;;;;;;;1.97;1.77;;;;;;;17.58;46.54;99514.50;10393030;28;20703;-43
2023/05/12 11:06:28;;;;;;;2.63;2.23;;;;;;;14.19;53.75;99612.44;10421232;28;20855;-68
2023/05/12 11:11:31;;;;;;;2.60;2.40;;;;;;;14.48;53.94;99588.72;10280502;28;20240;-69
2023/05/12 11:16:41;;;;;;;2.97;2.60;;;;;;;14.24;54.42;99584.88;10295092;28;20226;-69
2023/05/12 11:21:43;;;;;;;2.90;2.70;;;;;;;13.33;55.31;99535.44;10294550;28;20244;-69
2023/05/12 11:26:45;;;;;;;4.73;3.30;;;;;;;13.44;55.85;99553.63;10299164;28;20241;-71
2023/05/12 11:31:47;;;;;;;2.80;2.53;;;;;;;14.47;53.89;99557.44;10293634;28;20234;-69
2023/05/12 11:36:51;;;;;;;2.83;2.63;;;;;;;14.59;53.81;99578.09;10293974;28;20316;-68
2023/05/12 11:41:53;;;;;;;2.67;2.17;;;;;;;15.17;52.61;99578.13;10295461;28;20230;-70
2023/05/12 11:47:13;;;;;;;2.17;1.90;;;;;;;15.87;51.21;99559.00;10298452;28;20242;-68
2023/05/12 11:52:16;;;;;;;2.07;1.87;;;;;;;15.12;52.08;99566.13;10298596;28;20940;-69
2023/05/12 11:57:28;;;;;;;3.03;2.03;;;;;;;15.57;51.17;99550.81;10297364;28;20226;-68
2023/05/12 12:02:31;;;;;;;2.93;2.67;;;;;;;14.55;51.97;99549.94;10290083;28;20245;-68
2023/05/12 12:07:34;;;;;;;2.50;2.30;;;;;;;15.98;50.78;99579.03;10297861;28;20265;-68
2023/05/12 12:12:36;;;;;;;3.37;2.67;;;;;;;16.63;50.07;99594.63;10293067;28;20238;-69
2023/05/12 12:17:38;;;;;;;2.27;2.07;;;;;;;14.93;51.73;99586.81;10269897;28;20675;-69
2023/05/12 12:22:41;;;;;;;1.93;1.83;;;;;;;16.80;49.41;99592.09;10263998;28;20603;-71
2023/05/12 12:27:42;;;;;;;1.80;1.70;;;;;;;16.24;49.00;99567.88;10269715;28;20242;-71
2023/05/12 12:32:44;;;;;;;1.83;1.73;;;;;;;16.01;48.73;99565.91;10260394;28;20242;-72
2023/05/12 12:37:52;;;;;;;2.10;2.00;;;;;;;15.91;48.59;99587.19;10267665;28;20242;-72
2023/05/12 12:42:54;;;;;;;2.50;2.23;;;;;;;17.81;46.97;99612.97;10270825;28;20231;-72
2023/05/12 12:47:56;;;;;;;2.10;2.00;;;;;;;17.01;48.11;99563.75;10269912;28;20334;-73
2023/05/12 12:52:58;;;;;;;2.50;2.30;;;;;;;16.80;48.59;99546.16;10267251;28;20238;-70
2023/05/12 12:57:59;;;;;;;2.10;2.00;;;;;;;16.27;48.85;99571.25;10267190;28;20227;-73
2023/05/12 13:03:01;;;;;;;1.90;1.80;;;;;;;16.86;48.07;99576.84;10266634;28;20742;-72
2023/05/12 13:08:03;;;;;;;3.13;2.50;;;;;;;16.62;50.19;99568.69;10267478;28;20253;-72
2023/05/12 13:13:05;;;;;;;3.07;2.33;;;;;;;17.10;48.98;99542.59;10262054;28;20230;-72
2023/05/12 13:18:06;;;;;;;3.50;3.20;;;;;;;17.15;48.39;99534.63;10264200;28;20722;-72
2023/05/12 13:23:08;;;;;;;2.77;2.57;;;;;;;16.42;49.87;99587.84;10269127;28;20313;-72
2023/05/12 13:28:10;;;;;;;2.50;2.40;;;;;;;16.36;50.20;99556.34;10248949;28;20235;-73
2023/05/12 13:33:11;;;;;;;2.37;2.27;;;;;;;16.63;50.04;99551.41;10243617;28;20245;-72
2023/05/12 13:38:13;;;;;;;2.40;2.30;;;;;;;15.49;50.48;99538.44;10267365;28;20719;-72
2023/05/12 13:43:15;;;;;;;1.67;1.57;;;;;;;15.89;48.60;99511.03;10266850;28;20891;-72
2023/05/12 13:48:16;;;;;;;1.90;1.80;;;;;;;16.63;48.29;99497.38;10266813;28;20744;-72
2023/05/12 13:53:18;;;;;;;2.10;2.00;;;;;;;16.19;49.73;99548.84;10266415;28;20265;-72
2023/05/12 13:58:20;;;;;;;2.30;2.20;;;;;;;17.43;47.65;99541.22;10263963;28;20744;-72
2023/05/12 14:03:21;;;;;;;2.00;1.90;;;;;;;16.84;48.26;99560.88;10261364;28;20234;-70
2023/05/12 14:08:23;;;;;;;2.00;1.90;;;;;;;17.09;47.65;99524.72;10266053;28;20741;-70
2023/05/12 14:13:25;;;;;;;2.70;2.50;;;;;;;17.18;48.73;99563.88;10267353;28;20254;-72
2023/05/12 14:18:26;;;;;;;3.50;2.93;;;;;;;15.60;52.60;99523.41;10264899;28;20234;-71
2023/05/12 14:23:28;;;;;;;3.10;2.80;;;;;;;15.99;54.10;99569.88;10268390;28;20331;-70
2023/05/12 14:28:30;;;;;;;4.90;2.80;;;;;;;15.89;54.38;99548.81;10266737;28;20832;-76
2023/05/12 14:33:32;;;;;;;4.20;3.33;;;;;;;14.30;56.03;99476.38;10265204;28;20230;-72
2023/05/12 14:38:34;;;;;;;6.23;3.60;;;;;;;16.39;54.02;99535.13;10261516;28;20250;-72
2023/05/12 14:43:36;;;;;;;4.17;3.40;;;;;;;15.76;55.45;99548.97;10263875;28;20244;-71
2023/05/12 14:48:37;;;;;;;7.30;4.20;;;;;;;14.86;58.97;99526.75;10264205;28;20242;-73
2023/05/12 14:53:39;;;;;;;6.07;4.60;;;;;;;15.13;57.40;99521.97;10261156;28;20713;-72
2023/05/12 14:58:41;;;;;;;6.73;5.23;;;;;;;15.79;56.67;99487.31;10264334;28;20239;-71
2023/05/12 15:03:43;;;;;;;7.47;5.43;;;;;;;16.02;56.86;99531.66;10261638;28;20285;-70
2023/05/12 15:08:44;;;;;;;7.03;5.67;;;;;;;16.00;56.47;99504.06;10261396;28;20282;-70
2023/05/12 15:13:46;;;;;;;6.97;6.27;;;;;;;15.90;56.98;99533.47;10265392;28;20321;-72
2023/05/12 15:18:48;;;;;;;8.90;6.10;;;;;;;15.92;56.69;99547.53;10262137;28;20233;-69
2023/05/12 15:23:50;;;;;;;5.47;4.97;;;;;;;15.29;57.57;99576.38;10262516;28;20246;-71
2023/05/12 15:28:52;;;;;;;7.80;5.23;;;;;;;16.21;54.78;99522.47;10262836;28;20901;-71
2023/05/12 15:33:55;;;;;;;12.53;5.83;;;;;;;16.50;53.50;99530.84;10266601;28;20227;-70
2023/05/12 15:38:57;;;;;;;4.20;3.80;;;;;;;16.79;52.61;99549.94;10263758;28;20236;-70
2023/05/12 15:43:59;;;;;;;5.00;3.90;;;;;;;16.88;53.13;99564.75;10262745;28;20230;-70
2023/05/12 15:49:01;;;;;;;5.03;4.47;;;;;;;16.01;54.09;99582.09;10265589;28;20227;-70
2023/05/12 15:54:03;;;;;;;7.27;6.47;;;;;;;15.82;54.81;99556.16;10272529;28;20596;-70
2023/05/12 15:59:06;;;;;;;4.90;4.40;;;;;;;15.92;54.78;99582.63;10265088;28;20774;-70
2023/05/12 16:04:07;;;;;;;4.93;4.53;;;;;;;15.86;53.90;99555.50;10267890;28;20658;-69
2023/05/12 16:09:09;;;;;;;6.73;4.83;;;;;;;15.43;55.73;99594.06;10267054;28;20646;-70
2023/05/12 16:14:12;;;;;;;30.73;24.57;;;;;;;16.94;52.48;99581.94;10268915;28;20273;-69
2023/05/12 16:19:14;;;;;;;5.27;4.77;;;;;;;14.41;56.27;99540.28;10271849;28;20241;-70
2023/05/12 16:24:16;;;;;;;9.73;5.40;;;;;;;16.36;53.26;99565.28;10272421;28;20242;-70
2023/05/12 16:29:18;;;;;;;5.17;4.70;;;;;;;15.48;55.52;99579.94;10267156;28;20242;-69
2023/05/12 16:34:20;;;;;;;10.30;9.13;;;;;;;16.44;54.03;99569.53;10269187;28;20230;-70
2023/05/12 16:39:21;;;;;;;5.80;5.20;;;;;;;15.97;54.75;99553.91;10268165;28;20258;-68
2023/05/12 16:44:23;;;;;;;5.47;4.80;;;;;;;17.02;53.43;99588.91;10270912;28;20783;-68
2023/05/12 16:49:25;;;;;;;4.90;4.40;;;;;;;16.21;54.41;99594.50;10263517;28;20646;-67
2023/05/12 16:54:27;;;;;;;5.33;4.83;;;;;;;16.52;54.58;99582.72;10270516;28;20231;-68
2023/05/12 16:59:31;;;;;;;6.27;5.67;;;;;;;15.63;55.29;99587.69;10271378;28;20241;-67
2023/05/12 17:04:33;;;;;;;16.37;14.77;;;;;;;16.92;53.11;99571.34;10265226;28;20295;-68
2023/05/12 17:09:35;;;;;;;8.13;7.10;;;;;;;14.80;55.87;99526.78;10269541;28;20234;-68
2023/05/12 17:14:36;;;;;;;94.43;68.50;;;;;;;16.68;53.45;99564.22;10267626;28;20606;-69
2023/05/12 17:19:40;;;;;;;156.70;125.70;;;;;;;16.65;52.81;99561.97;10266131;28;20246;-65
2023/05/12 17:24:43;;;;;;;20.53;17.20;;;;;;;16.65;53.60;99605.19;10267618;28;20226;-67
2023/05/12 17:29:44;;;;;;;6.73;5.63;;;;;;;16.61;53.91;99612.94;10268661;28;20250;-67
2023/05/12 17:34:49;;;;;;;3.90;3.50;;;;;;;15.78;54.58;99617.03;10269428;28;20833;-67
2023/05/12 17:39:51;;;;;;;4.10;3.53;;;;;;;16.75;52.77;99606.31;10267776;28;20249;-67
2023/05/12 17:44:52;;;;;;;5.20;3.47;;;;;;;16.50;53.02;99598.34;10267759;28;20234;-66
2023/05/12 17:49:54;;;;;;;4.37;2.63;;;;;;;15.14;54.55;99607.16;10265945;28;20725;-66
2023/05/12 17:54:56;;;;;;;3.20;2.90;;;;;;;15.63;52.63;99595.78;10262364;28;20227;-66
2023/05/12 17:59:57;;;;;;;3.90;2.80;;;;;;;14.39;53.97;99617.72;10264773;28;20230;-65
2023/05/12 18:04:59;;;;;;;2.70;2.50;;;;;;;14.35;54.50;99652.31;10264272;28;20238;-64
2023/05/12 18:10:01;;;;;;;2.50;2.30;;;;;;;15.12;53.51;99668.53;10263171;28;20654;-65
2023/05/12 18:15:05;;;;;;;2.37;2.20;;;;;;;16.03;51.33;99609.69;10265256;28;20223;-65
2023/05/12 18:20:07;;;;;;;2.50;2.30;;;;;;;16.18;51.96;99638.16;10269531;28;20245;-65
2023/05/12 18:25:11;;;;;;;2.60;2.40;;;;;;;15.98;52.47;99638.41;10265078;28;20585;-64
2023/05/12 18:30:13;;;;;;;4.03;2.90;;;;;;;15.71;53.13;99657.53;10261919;28;20835;-64
2023/05/12 18:35:15;;;;;;;3.03;2.80;;;;;;;15.20;53.49;99653.16;10265371;28;20747;-67
2023/05/12 18:40:17;;;;;;;2.73;2.53;;;;;;;13.84;55.18;99635.03;10264591;28;20238;-66
2023/05/12 18:45:18;;;;;;;6.17;2.00;;;;;;;13.93;55.01;99661.72;10265410;28;20235;-67
2023/05/12 18:50:21;;;;;;;2.33;2.13;;;;;;;14.62;54.16;99671.06;10267159;28;20234;-65
2023/05/12 18:55:22;;;;;;;2.47;2.27;;;;;;;14.77;53.93;99686.94;10265860;28;20611;-67
2023/05/12 19:00:26;;;;;;;2.93;2.30;;;;;;;14.29;53.84;99666.66;10264274;28;20928;-66
2023/05/12 19:05:28;;;;;;;2.73;2.53;;;;;;;14.02;54.80;99687.38;10262708;28;20242;-66
2023/05/12 19:10:30;;;;;;;2.40;2.30;;;;;;;14.41;54.42;99715.28;10264610;28;20231;-69
2023/05/12 19:15:32;;;;;;;2.80;2.60;;;;;;;14.68;54.14;99718.69;10265769;28;20235;-68
2023/05/12 19:20:35;;;;;;;4.70;2.60;;;;;;;13.24;55.91;99675.34;10264991;28;20334;-66
2023/05/12 19:25:36;;;;;;;2.30;2.20;;;;;;;13.88;54.39;99704.56;10271852;28;20258;-68
2023/05/12 19:30:38;;;;;;;3.53;2.63;;;;;;;13.26;56.35;99707.38;10271818;28;20245;-70
2023/05/12 19:35:39;;;;;;;2.60;2.40;;;;;;;14.61;54.42;99733.22;10271557;28;20226;-68
2023/05/12 19:40:41;;;;;;;2.67;2.47;;;;;;;12.73;56.10;99638.28;10271619;28;20231;-69
2023/05/12 19:45:43;;;;;;;2.80;2.60;;;;;;;13.79;55.07;99736.22;10275773;28;20617;-69
2023/05/12 19:50:45;;;;;;;4.60;2.40;;;;;;;14.14;54.63;99741.41;10271513;28;20330;-67
2023/05/12 19:55:47;;;;;;;2.90;2.37;;;;;;;14.03;54.58;99761.66;10272684;28;20769;-68
2023/05/12 20:00:48;;;;;;;2.60;2.47;;;;;;;12.45;57.31;99663.34;10271960;28;20239;-67
2023/05/12 20:05:50;;;;;;;2.70;2.50;;;;;;;13.89;55.25;99774.28;10271613;28;20270;-67
2023/05/12 20:10:52;;;;;;;3.17;2.33;;;;;;;13.56;55.19;99760.81;10264578;28;20238;-65
2023/05/12 20:15:53;;;;;;;3.07;2.47;;;;;;;14.25;54.61;99781.13;10268712;28;20238;-65
2023/05/12 20:20:55;;;;;;;2.53;2.30;;;;;;;14.16;54.58;99772.44;10272286;28;20238;-65
2023/05/12 20:25:57;;;;;;;2.50;2.30;;;;;;;14.38;54.27;99799.13;10266774;28;20238;-70
2023/05/12 20:30:58;;;;;;;2.23;2.03;;;;;;;13.48;54.64;99775.28;10268107;28;20268;-66
2023/05/12 20:36:00;;;;;;;2.67;2.20;;;;;;;13.99;54.37;99798.91;10266299;28;20284;-66
2023/05/12 20:41:04;;;;;;;1.97;1.87;;;;;;;14.29;53.47;99816.53;10267388;28;20231;-66
2023/05/12 20:46:06;;;;;;;2.37;2.17;;;;;;;13.49;54.61;99776.94;10271966;28;20951;-67
2023/05/12 20:51:11;;;;;;;2.17;2.03;;;;;;;12.73;55.92;99724.19;10268515;28;20241;-65
2023/05/12 20:56:13;;;;;;;2.67;2.50;;;;;;;14.62;53.39;99823.75;10269274;28;20203;-67
2023/05/12 21:01:15;;;;;;;3.30;2.10;;;;;;;13.93;53.93;99825.81;10268662;28;20243;-65
2023/05/12 21:06:17;;;;;;;2.63;2.40;;;;;;;13.85;53.75;99811.53;10268943;28;20243;-69
2023/05/12 21:11:18;;;;;;;2.00;1.90;;;;;;;14.64;52.50;99809.00;10267338;28;20792;-68
2023/05/12 21:16:20;;;;;;;2.50;2.30;;;;;;;14.55;52.65;99818.38;10265555;28;20245;-68
2023/05/12 21:21:22;;;;;;;2.53;2.30;;;;;;;14.73;52.13;99832.00;10268291;28;20238;-68
2023/05/12 21:26:25;;;;;;;3.10;2.80;;;;;;;14.40;52.48;99838.25;10266437;28;20718;-69
2023/05/12 21:31:28;;;;;;;1.97;1.87;;;;;;;13.37;54.35;99802.75;10265605;28;20243;-67
2023/05/12 21:36:30;;;;;;;2.70;2.50;;;;;;;14.11;54.78;99844.06;10266317;28;20234;-68
2023/05/12 21:41:32;;;;;;;2.80;2.60;;;;;;;13.32;56.06;99835.59;10269846;28;20980;-68
2023/05/12 21:46:34;;;;;;;2.53;2.30;;;;;;;15.14;52.98;99857.00;10267199;28;20235;-68
2023/05/12 21:51:36;;;;;;;3.60;3.03;;;;;;;13.31;54.86;99811.63;10267777;28;20297;-68
2023/05/12 21:56:37;;;;;;;3.93;2.30;;;;;;;14.47;53.15;99838.25;10268533;28;20722;-69
2023/05/12 22:01:39;;;;;;;4.70;3.70;;;;;;;13.05;55.34;99805.91;10265714;28;20237;-69
2023/05/12 22:06:41;;;;;;;10.27;5.03;;;;;;;13.19;55.60;99830.97;10264787;28;20238;-69
2023/05/12 22:11:43;;;;;;;4.50;3.80;;;;;;;14.71;52.43;99826.00;10268345;28;20250;-69
2023/05/12 22:16:45;;;;;;;5.60;3.90;;;;;;;13.72;54.97;99856.41;10266201;28;20227;-69
2023/05/12 22:21:47;;;;;;;2.70;2.50;;;;;;;14.40;53.88;99854.41;10264246;28;20243;-68
2023/05/12 22:26:49;;;;;;;3.83;2.80;;;;;;;14.23;53.88;99863.94;10263283;28;20248;-69
2023/05/12 22:31:51;;;;;;;2.63;2.50;;;;;;;13.43;54.50;99826.97;10264273;28;20242;-69
2023/05/12 22:36:52;;;;;;;3.17;2.83;;;;;;;13.20;54.81;99810.31;10266854;28;20234;-68
2023/05/12 22:41:54;;;;;;;3.27;2.97;;;;;;;13.77;54.67;99849.38;10266020;28;20253;-68
2023/05/12 22:46:56;;;;;;;3.10;2.43;;;;;;;13.95;53.46;99840.72;10266793;28;20237;-69
2023/05/12 22:51:58;;;;;;;2.90;2.70;;;;;;;13.34;54.14;99822.78;10264208;28;20269;-68
2023/05/12 22:57:00;;;;;;;2.80;2.60;;;;;;;13.51;54.50;99866.25;10264453;28;20234;-69
2023/05/12 23:02:02;;;;;;;2.90;2.70;;;;;;;13.95;53.60;99875.69;10264790;28;20701;-68
2023/05/12 23:07:04;;;;;;;4.03;2.60;;;;;;;13.91;52.85;99846.72;10264978;28;20238;-68
2023/05/12 23:12:09;;;;;;;5.33;2.83;;;;;;;14.24;53.10;99881.75;10266146;28;20767;-69
2023/05/12 23:17:11;;;;;;;3.23;2.80;;;;;;;14.11;52.62;99870.97;10264421;28;20223;-69
2023/05/12 23:22:12;;;;;;;3.03;2.67;;;;;;;14.01;53.27;99879.41;10265429;28;20737;-69